sensor_id;sensor_type;location;lat;lon;timestamp;pressure;altitude;pressure_sealevel;temperature;humidity
38530;BME280;24301;54.332;48.386;2023-03-31T00:00:11;98517.69;;;4.06;80.93
38530;BME280;24301;54.332;48.386;2023-03-31T00:02:40;98509.81;;;3.94;81.45
38530;BME280;24301;54.332;48.386;2023-03-31T00:05:07;98503.78;;;3.96;81.16
38530;BME280;24301;54.332;48.386;2023-03-31T00:07:34;98486.41;;;3.94;81.05
38530;BME280;24301;54.332;48.386;2023-03-31T00:10:08;98480.31;;;3.79;81.18
38530;BME280;24301;54.332;48.386;2023-03-31T00:12:35;98508.06;;;3.88;81.68
38530;BME280;24301;54.332;48.386;2023-03-31T00:15:01;98480.28;;;3.78;81.50
38530;BME280;24301;54.332;48.386;2023-03-31T00:17:28;98500.22;;;3.82;81.35
38530;BME280;24301;54.332;48.386;2023-03-31T00:19:58;98501.16;;;3.95;81.64
38530;BME280;24301;54.332;48.386;2023-03-31T00:22:26;98499.44;;;3.92;81.87
38530;BME280;24301;54.332;48.386;2023-03-31T00:24:52;98469.91;;;3.87;81.51
38530;BME280;24301;54.332;48.386;2023-03-31T00:27:21;98478.56;;;3.86;81.70
38530;BME280;24301;54.332;48.386;2023-03-31T00:29:47;98492.50;;;3.97;81.72
38530;BME280;24301;54.332;48.386;2023-03-31T00:32:18;98476.91;;;4.02;81.43
38530;BME280;24301;54.332;48.386;2023-03-31T00:34:44;98473.47;;;4.05;80.82
38530;BME280;24301;54.332;48.386;2023-03-31T00:37:10;98501.16;;;3.93;80.42
38530;BME280;24301;54.332;48.386;2023-03-31T00:39:40;98476.84;;;3.88;80.18
38530;BME280;24301;54.332;48.386;2023-03-31T00:42:16;98479.41;;;3.77;80.08
38530;BME280;24301;54.332;48.386;2023-03-31T00:51:27;98471.50;;;3.60;79.18
38530;BME280;24301;54.332;48.386;2023-03-31T00:54:00;98466.31;;;3.60;79.04
38530;BME280;24301;54.332;48.386;2023-03-31T00:56:33;98495.75;;;3.56;79.44
38530;BME280;24301;54.332;48.386;2023-03-31T00:59:02;98472.31;;;3.48;79.05
38530;BME280;24301;54.332;48.386;2023-03-31T01:01:33;98494.81;;;3.43;79.36
38530;BME280;24301;54.332;48.386;2023-03-31T01:04:02;98475.75;;;3.41;79.05
38530;BME280;24301;54.332;48.386;2023-03-31T01:06:28;98478.28;;;3.36;78.72
38530;BME280;24301;54.332;48.386;2023-03-31T01:08:57;98467.94;;;3.41;78.46
38530;BME280;24301;54.332;48.386;2023-03-31T01:11:25;98467.91;;;3.39;78.17
38530;BME280;24301;54.332;48.386;2023-03-31T01:13:54;98456.72;;;3.50;78.32
38530;BME280;24301;54.332;48.386;2023-03-31T01:16:21;98493.94;;;3.42;77.70
38530;BME280;24301;54.332;48.386;2023-03-31T01:18:48;98469.66;;;3.36;78.07
38530;BME280;24301;54.332;48.386;2023-03-31T01:21:41;98488.75;;;3.42;77.72
38530;BME280;24301;54.332;48.386;2023-03-31T01:24:31;98469.63;;;3.37;77.57
38530;BME280;24301;54.332;48.386;2023-03-31T01:27:39;98459.22;;;3.29;78.05
38530;BME280;24301;54.332;48.386;2023-03-31T01:38:53;98449.44;;;2.94;78.95
38530;BME280;24301;54.332;48.386;2023-03-31T01:47:09;98447.78;;;3.04;78.24
38530;BME280;24301;54.332;48.386;2023-03-31T01:49:48;98426.94;;;2.96;78.40
38530;BME280;24301;54.332;48.386;2023-03-31T01:55:18;98439.97;;;3.02;78.00
38530;BME280;24301;54.332;48.386;2023-03-31T01:57:49;98447.78;;;3.04;77.81
38530;BME280;24301;54.332;48.386;2023-03-31T02:00:27;98440.88;;;3.08;77.11
38530;BME280;24301;54.332;48.386;2023-03-31T02:05:52;98435.53;;;2.86;78.38
38530;BME280;24301;54.332;48.386;2023-03-31T02:08:33;98421.56;;;2.73;77.86
38530;BME280;24301;54.332;48.386;2023-03-31T02:11:01;98432.88;;;2.81;77.65
38530;BME280;24301;54.332;48.386;2023-03-31T02:13:28;98450.97;;;2.73;77.79
38530;BME280;24301;54.332;48.386;2023-03-31T02:15:59;98431.97;;;2.78;77.58
38530;BME280;24301;54.332;48.386;2023-03-31T02:18:30;98422.53;;;2.87;77.88
38530;BME280;24301;54.332;48.386;2023-03-31T02:20:59;98444.06;;;2.76;77.44
38530;BME280;24301;54.332;48.386;2023-03-31T02:23:27;98432.78;;;2.70;77.74
38530;BME280;24301;54.332;48.386;2023-03-31T02:26:03;98411.19;;;2.75;77.93
38530;BME280;24301;54.332;48.386;2023-03-31T02:28:31;98432.00;;;2.79;78.20
38530;BME280;24301;54.332;48.386;2023-03-31T02:33:48;98409.56;;;2.86;77.86
38530;BME280;24301;54.332;48.386;2023-03-31T02:36:15;98405.28;;;2.93;77.65
38530;BME280;24301;54.332;48.386;2023-03-31T02:39:08;98413.09;;;3.00;77.11
38530;BME280;24301;54.332;48.386;2023-03-31T02:41:36;98418.34;;;3.05;77.42
38530;BME280;24301;54.332;48.386;2023-03-31T02:44:03;98405.41;;;3.11;76.97
38530;BME280;24301;54.332;48.386;2023-03-31T02:46:29;98422.69;;;3.06;76.77
38530;BME280;24301;54.332;48.386;2023-03-31T02:49:02;98395.00;;;3.07;76.68
38530;BME280;24301;54.332;48.386;2023-03-31T02:57:32;98402.88;;;3.24;75.80
38530;BME280;24301;54.332;48.386;2023-03-31T03:00:30;98401.13;;;3.20;75.34
38530;BME280;24301;54.332;48.386;2023-03-31T03:05:52;98386.38;;;3.15;74.60
38530;BME280;24301;54.332;48.386;2023-03-31T03:09:16;98399.34;;;3.12;74.33
38530;BME280;24301;54.332;48.386;2023-03-31T03:12:08;98406.28;;;3.13;74.32
38530;BME280;24301;54.332;48.386;2023-03-31T03:14:52;98383.75;;;3.09;73.86
38530;BME280;24301;54.332;48.386;2023-03-31T03:17:26;98395.00;;;3.11;73.77
38530;BME280;24301;54.332;48.386;2023-03-31T03:19:55;98401.09;;;3.12;73.91
38530;BME280;24301;54.332;48.386;2023-03-31T03:22:23;98414.03;;;3.10;73.16
38530;BME280;24301;54.332;48.386;2023-03-31T03:24:49;98393.25;;;3.06;73.40
38530;BME280;24301;54.332;48.386;2023-03-31T03:27:17;98415.56;;;2.79;73.05
38530;BME280;24301;54.332;48.386;2023-03-31T03:29:43;98441.31;;;2.55;73.52
38530;BME280;24301;54.332;48.386;2023-03-31T03:32:09;98436.88;;;2.43;73.72
38530;BME280;24301;54.332;48.386;2023-03-31T03:34:36;98430.88;;;2.49;74.03
38530;BME280;24301;54.332;48.386;2023-03-31T03:37:02;98443.75;;;2.38;74.31
38530;BME280;24301;54.332;48.386;2023-03-31T03:39:28;98421.22;;;2.34;74.29
38530;BME280;24301;54.332;48.386;2023-03-31T03:41:53;98420.34;;;2.34;74.21
38530;BME280;24301;54.332;48.386;2023-03-31T03:44:19;98443.84;;;2.49;73.59
38530;BME280;24301;54.332;48.386;2023-03-31T03:46:45;98443.91;;;2.54;73.41
38530;BME280;24301;54.332;48.386;2023-03-31T03:49:11;98402.28;;;2.43;73.11
38530;BME280;24301;54.332;48.386;2023-03-31T03:51:37;98409.16;;;2.39;73.05
38530;BME280;24301;54.332;48.386;2023-03-31T03:54:03;98403.06;;;2.36;73.64
38530;BME280;24301;54.332;48.386;2023-03-31T03:56:30;98384.06;;;2.40;73.58
38530;BME280;24301;54.332;48.386;2023-03-31T03:58:56;98373.78;;;2.49;73.05
38530;BME280;24301;54.332;48.386;2023-03-31T04:01:22;98394.56;;;2.52;72.94
38530;BME280;24301;54.332;48.386;2023-03-31T04:03:48;98399.88;;;2.66;72.89
38530;BME280;24301;54.332;48.386;2023-03-31T04:06:14;98391.31;;;2.78;71.82
38530;BME280;24301;54.332;48.386;2023-03-31T04:08:40;98377.34;;;2.64;72.15
38530;BME280;24301;54.332;48.386;2023-03-31T04:11:14;98368.59;;;2.48;72.87
38530;BME280;24301;54.332;48.386;2023-03-31T04:13:42;98406.06;;;2.85;72.82
38530;BME280;24301;54.332;48.386;2023-03-31T04:16:09;98378.69;;;3.40;70.14
38530;BME280;24301;54.332;48.386;2023-03-31T04:18:35;98377.25;;;4.29;68.92
38530;BME280;24301;54.332;48.386;2023-03-31T04:21:08;98377.25;;;4.99;66.31
38530;BME280;24301;54.332;48.386;2023-03-31T04:23:38;98388.50;;;4.13;65.72
38530;BME280;24301;54.332;48.386;2023-03-31T04:26:12;98365.88;;;3.84;67.46
38530;BME280;24301;54.332;48.386;2023-03-31T04:28:38;98375.41;;;3.79;68.13
38530;BME280;24301;54.332;48.386;2023-03-31T04:31:08;98365.09;;;4.11;67.87
38530;BME280;24301;54.332;48.386;2023-03-31T04:33:34;98354.72;;;4.50;67.10
38530;BME280;24301;54.332;48.386;2023-03-31T04:36:04;98353.84;;;4.32;66.18
38530;BME280;24301;54.332;48.386;2023-03-31T04:38:46;98351.94;;;3.63;68.01
38530;BME280;24301;54.332;48.386;2023-03-31T04:41:13;98350.06;;;3.26;69.86
38530;BME280;24301;54.332;48.386;2023-03-31T04:43:39;98375.09;;;3.10;70.80
38530;BME280;24301;54.332;48.386;2023-03-31T04:46:05;98379.25;;;2.83;71.71
38530;BME280;24301;54.332;48.386;2023-03-31T04:48:30;98351.47;;;2.71;72.30
38530;BME280;24301;54.332;48.386;2023-03-31T04:50:56;98354.91;;;2.66;73.06
38530;BME280;24301;54.332;48.386;2023-03-31T04:53:22;98391.25;;;2.70;73.15
38530;BME280;24301;54.332;48.386;2023-03-31T04:55:51;98379.19;;;2.77;72.92
38530;BME280;24301;54.332;48.386;2023-03-31T04:58:17;98381.94;;;2.97;71.91
38530;BME280;24301;54.332;48.386;2023-03-31T05:00:43;98357.75;;;3.03;71.81
38530;BME280;24301;54.332;48.386;2023-03-31T05:03:09;98390.75;;;3.27;71.31
38530;BME280;24301;54.332;48.386;2023-03-31T05:05:35;98353.47;;;3.14;71.04
38530;BME280;24301;54.332;48.386;2023-03-31T05:08:02;98366.63;;;3.47;70.74
38530;BME280;24301;54.332;48.386;2023-03-31T05:10:28;98366.69;;;3.64;69.65
38530;BME280;24301;54.332;48.386;2023-03-31T05:12:54;98371.94;;;3.83;69.33
38530;BME280;24301;54.332;48.386;2023-03-31T05:15:20;98391.84;;;3.67;68.38
38530;BME280;24301;54.332;48.386;2023-03-31T05:17:46;98348.44;;;3.45;69.73
38530;BME280;24301;54.332;48.386;2023-03-31T05:20:12;98372.56;;;3.20;70.64
38530;BME280;24301;54.332;48.386;2023-03-31T05:22:39;98374.97;;;2.90;71.99
38530;BME280;24301;54.332;48.386;2023-03-31T05:25:07;98378.25;;;2.67;73.42
38530;BME280;24301;54.332;48.386;2023-03-31T05:27:34;98375.69;;;2.70;73.38
38530;BME280;24301;54.332;48.386;2023-03-31T05:30:01;98354.88;;;2.64;74.08
38530;BME280;24301;54.332;48.386;2023-03-31T05:32:29;98360.03;;;2.63;74.37
38530;BME280;24301;54.332;48.386;2023-03-31T05:34:55;98363.47;;;2.55;74.11
38530;BME280;24301;54.332;48.386;2023-03-31T05:37:24;98373.84;;;2.55;74.80
38530;BME280;24301;54.332;48.386;2023-03-31T05:39:51;98379.22;;;2.80;74.52
38530;BME280;24301;54.332;48.386;2023-03-31T05:42:17;98370.72;;;3.03;73.25
38530;BME280;24301;54.332;48.386;2023-03-31T05:44:44;98343.13;;;3.21;72.83
38530;BME280;24301;54.332;48.386;2023-03-31T05:47:10;98372.69;;;3.49;71.70
38530;BME280;24301;54.332;48.386;2023-03-31T05:49:36;98348.47;;;3.61;70.97
38530;BME280;24301;54.332;48.386;2023-03-31T05:52:04;98350.28;;;3.78;70.29
38530;BME280;24301;54.332;48.386;2023-03-31T05:54:31;98372.81;;;3.82;69.72
38530;BME280;24301;54.332;48.386;2023-03-31T05:56:57;98352.94;;;4.12;69.98
38530;BME280;24301;54.332;48.386;2023-03-31T05:59:23;98369.47;;;4.67;68.47
38530;BME280;24301;54.332;48.386;2023-03-31T06:01:49;98374.66;;;4.82;66.46
38530;BME280;24301;54.332;48.386;2023-03-31T06:04:15;98360.78;;;4.65;66.56
38530;BME280;24301;54.332;48.386;2023-03-31T06:06:41;98363.38;;;4.62;67.51
38530;BME280;24301;54.332;48.386;2023-03-31T06:09:07;98362.47;;;5.22;67.58
38530;BME280;24301;54.332;48.386;2023-03-31T06:11:33;98361.31;;;5.85;64.80
38530;BME280;24301;54.332;48.386;2023-03-31T06:13:59;98351.03;;;5.57;63.70
38530;BME280;24301;54.332;48.386;2023-03-31T06:16:25;98346.88;;;5.00;65.10
38530;BME280;24301;54.332;48.386;2023-03-31T06:18:51;98367.69;;;5.14;65.09
38530;BME280;24301;54.332;48.386;2023-03-31T06:21:18;98363.28;;;5.30;64.88
38530;BME280;24301;54.332;48.386;2023-03-31T06:23:45;98345.84;;;5.46;63.66
38530;BME280;24301;54.332;48.386;2023-03-31T06:26:13;98375.53;;;4.92;64.61
38530;BME280;24301;54.332;48.386;2023-03-31T06:28:41;98375.53;;;4.45;66.29
38530;BME280;24301;54.332;48.386;2023-03-31T06:31:12;98383.34;;;4.25;66.75
38530;BME280;24301;54.332;48.386;2023-03-31T06:33:39;98387.63;;;4.08;67.84
38530;BME280;24301;54.332;48.386;2023-03-31T06:36:06;98365.88;;;3.84;68.79
38530;BME280;24301;54.332;48.386;2023-03-31T06:38:33;98363.22;;;3.65;69.73
38530;BME280;24301;54.332;48.386;2023-03-31T06:41:00;98367.56;;;3.71;69.84
38530;BME280;24301;54.332;48.386;2023-03-31T06:43:27;98371.88;;;3.56;70.21
38530;BME280;24301;54.332;48.386;2023-03-31T06:45:54;98352.78;;;3.47;70.34
38530;BME280;24301;54.332;48.386;2023-03-31T06:48:22;98368.22;;;3.23;71.06
38530;BME280;24301;54.332;48.386;2023-03-31T06:50:48;98366.44;;;3.14;71.78
38530;BME280;24301;54.332;48.386;2023-03-31T06:53:14;98367.31;;;3.13;71.87
38530;BME280;24301;54.332;48.386;2023-03-31T06:55:40;98370.75;;;3.06;72.39
38530;BME280;24301;54.332;48.386;2023-03-31T06:58:06;98354.22;;;2.93;72.96
38530;BME280;24301;54.332;48.386;2023-03-31T07:00:32;98382.69;;;2.79;73.79
38530;BME280;24301;54.332;48.386;2023-03-31T07:02:58;98376.63;;;2.80;73.76
38530;BME280;24301;54.332;48.386;2023-03-31T07:05:26;98395.56;;;2.67;74.24
38530;BME280;24301;54.332;48.386;2023-03-31T07:07:53;98371.34;;;2.66;74.33
38530;BME280;24301;54.332;48.386;2023-03-31T07:10:20;98361.00;;;2.71;74.73
38530;BME280;24301;54.332;48.386;2023-03-31T07:12:47;98373.09;;;2.70;74.87
38530;BME280;24301;54.332;48.386;2023-03-31T07:15:13;98370.53;;;2.75;74.93
38530;BME280;24301;54.332;48.386;2023-03-31T07:17:39;98364.44;;;2.67;75.42
38530;BME280;24301;54.332;48.386;2023-03-31T07:20:11;98361.78;;;2.64;76.13
38530;BME280;24301;54.332;48.386;2023-03-31T07:22:40;98372.22;;;2.67;76.02
38530;BME280;24301;54.332;48.386;2023-03-31T07:25:07;98354.97;;;2.75;75.88
38530;BME280;24301;54.332;48.386;2023-03-31T07:27:34;98359.28;;;2.75;76.17
38530;BME280;24301;54.332;48.386;2023-03-31T07:30:00;98339.38;;;2.75;76.41
38530;BME280;24301;54.332;48.386;2023-03-31T07:32:26;98365.31;;;2.69;76.55
38530;BME280;24301;54.332;48.386;2023-03-31T07:34:52;98354.00;;;2.64;76.83
38530;BME280;24301;54.332;48.386;2023-03-31T07:37:18;98353.97;;;2.57;77.71
38530;BME280;24301;54.332;48.386;2023-03-31T07:39:44;98354.94;;;2.69;77.75
38530;BME280;24301;54.332;48.386;2023-03-31T07:42:10;98333.28;;;2.68;77.39
38530;BME280;24301;54.332;48.386;2023-03-31T07:44:36;98343.56;;;2.57;77.90
38530;BME280;24301;54.332;48.386;2023-03-31T07:47:02;98356.53;;;2.54;78.93
38530;BME280;24301;54.332;48.386;2023-03-31T07:49:34;98336.59;;;2.52;79.78
38530;BME280;24301;54.332;48.386;2023-03-31T07:52:00;98368.59;;;2.46;80.22
38530;BME280;24301;54.332;48.386;2023-03-31T07:54:27;98344.41;;;2.50;80.42
38530;BME280;24301;54.332;48.386;2023-03-31T07:56:53;98340.88;;;2.42;80.93
38530;BME280;24301;54.332;48.386;2023-03-31T07:59:19;98331.38;;;2.46;82.00
38530;BME280;24301;54.332;48.386;2023-03-31T08:01:45;98314.13;;;2.52;81.48
38530;BME280;24301;54.332;48.386;2023-03-31T08:04:11;98314.97;;;2.48;82.17
38530;BME280;24301;54.332;48.386;2023-03-31T08:06:37;98326.22;;;2.47;82.50
38530;BME280;24301;54.332;48.386;2023-03-31T08:09:04;98290.81;;;2.55;82.42
38530;BME280;24301;54.332;48.386;2023-03-31T08:11:31;98315.00;;;2.51;82.52
38530;BME280;24301;54.332;48.386;2023-03-31T08:13:57;98273.50;;;2.54;82.78
38530;BME280;24301;54.332;48.386;2023-03-31T08:16:23;98296.03;;;2.62;82.83
38530;BME280;24301;54.332;48.386;2023-03-31T08:18:49;98298.69;;;2.69;82.77
38530;BME280;24301;54.332;48.386;2023-03-31T08:21:15;98287.50;;;2.81;82.62
38530;BME280;24301;54.332;48.386;2023-03-31T08:23:41;98259.81;;;2.83;82.38
38530;BME280;24301;54.332;48.386;2023-03-31T08:26:11;98271.16;;;2.98;82.78
38530;BME280;24301;54.332;48.386;2023-03-31T08:28:38;98261.69;;;3.08;82.53
38530;BME280;24301;54.332;48.386;2023-03-31T08:31:05;98253.00;;;3.10;82.51
38530;BME280;24301;54.332;48.386;2023-03-31T08:33:32;98265.19;;;3.18;82.32
38530;BME280;24301;54.332;48.386;2023-03-31T08:36:24;98241.84;;;3.30;82.30
38530;BME280;24301;54.332;48.386;2023-03-31T08:38:52;98230.59;;;3.40;82.12
38530;BME280;24301;54.332;48.386;2023-03-31T08:44:03;98262.69;;;3.45;81.89
38530;BME280;24301;54.332;48.386;2023-03-31T08:46:33;98260.09;;;3.49;81.14
38530;BME280;24301;54.332;48.386;2023-03-31T08:49:00;98254.91;;;3.52;81.19
38530;BME280;24301;54.332;48.386;2023-03-31T08:51:40;98262.66;;;3.41;81.17
38530;BME280;24301;54.332;48.386;2023-03-31T08:54:32;98271.25;;;3.24;82.00
38530;BME280;24301;54.332;48.386;2023-03-31T08:56:59;98262.53;;;3.04;82.57
38530;BME280;24301;54.332;48.386;2023-03-31T08:59:33;98272.00;;;2.97;84.22
38530;BME280;24301;54.332;48.386;2023-03-31T09:08:08;98239.06;;;2.86;85.77
38530;BME280;24301;54.332;48.386;2023-03-31T09:16:13;98290.94;;;2.74;86.71
38530;BME280;24301;54.332;48.386;2023-03-31T09:18:40;98288.22;;;2.58;88.47
38530;BME280;24301;54.332;48.386;2023-03-31T09:21:42;98286.53;;;2.65;88.32
38530;BME280;24301;54.332;48.386;2023-03-31T09:26:55;98293.50;;;2.68;88.43
38530;BME280;24301;54.332;48.386;2023-03-31T09:29:54;98288.16;;;2.51;89.53
38530;BME280;24301;54.332;48.386;2023-03-31T09:32:24;98291.63;;;2.48;90.53
38530;BME280;24301;54.332;48.386;2023-03-31T09:34:57;98312.22;;;2.29;91.90
38530;BME280;24301;54.332;48.386;2023-03-31T09:37:28;98292.25;;;2.16;92.93
38530;BME280;24301;54.332;48.386;2023-03-31T09:39:59;98296.47;;;2.06;94.35
38530;BME280;24301;54.332;48.386;2023-03-31T09:42:25;98308.50;;;1.98;95.86
38530;BME280;24301;54.332;48.386;2023-03-31T09:44:51;98298.91;;;1.88;96.54
38530;BME280;24301;54.332;48.386;2023-03-31T09:49:49;98284.00;;;1.68;99.76
38530;BME280;24301;54.332;48.386;2023-03-31T09:52:26;98308.97;;;1.61;100.00
38530;BME280;24301;54.332;48.386;2023-03-31T09:54:55;98295.13;;;1.59;100.00
38530;BME280;24301;54.332;48.386;2023-03-31T09:57:28;98294.28;;;1.58;100.00
38530;BME280;24301;54.332;48.386;2023-03-31T10:00:02;98296.00;;;1.56;100.00
38530;BME280;24301;54.332;48.386;2023-03-31T10:03:00;98299.34;;;1.49;100.00
38530;BME280;24301;54.332;48.386;2023-03-31T10:05:36;98303.72;;;1.52;100.00
38530;BME280;24301;54.332;48.386;2023-03-31T10:10:43;98284.75;;;1.56;100.00
38530;BME280;24301;54.332;48.386;2023-03-31T10:13:14;98288.25;;;1.61;100.00
38530;BME280;24301;54.332;48.386;2023-03-31T10:15:44;98291.81;;;1.71;100.00
38530;BME280;24301;54.332;48.386;2023-03-31T10:18:18;98303.09;;;1.76;100.00
38530;BME280;24301;54.332;48.386;2023-03-31T10:20:51;98307.34;;;1.66;100.00
38530;BME280;24301;54.332;48.386;2023-03-31T10:23:22;98305.50;;;1.59;100.00
38530;BME280;24301;54.332;48.386;2023-03-31T10:25:49;98316.66;;;1.52;100.00
38530;BME280;24301;54.332;48.386;2023-03-31T10:28:18;98329.59;;;1.50;100.00
38530;BME280;24301;54.332;48.386;2023-03-31T10:31:03;98300.25;;;1.53;100.00
38530;BME280;24301;54.332;48.386;2023-03-31T10:33:30;98300.31;;;1.57;100.00
38530;BME280;24301;54.332;48.386;2023-03-31T10:36:01;98308.13;;;1.62;100.00
38530;BME280;24301;54.332;48.386;2023-03-31T10:38:34;98296.88;;;1.58;100.00
38530;BME280;24301;54.332;48.386;2023-03-31T10:41:01;98300.47;;;1.73;100.00
38530;BME280;24301;54.332;48.386;2023-03-31T10:43:33;98297.00;;;1.71;100.00
38530;BME280;24301;54.332;48.386;2023-03-31T10:46:04;98272.88;;;1.77;100.00
38530;BME280;24301;54.332;48.386;2023-03-31T10:48:33;98286.78;;;1.88;100.00
38530;BME280;24301;54.332;48.386;2023-03-31T10:51:04;98297.16;;;1.88;100.00
38530;BME280;24301;54.332;48.386;2023-03-31T10:53:51;98285.97;;;1.94;100.00
38530;BME280;24301;54.332;48.386;2023-03-31T10:59:13;98280.84;;;1.98;100.00
38530;BME280;24301;54.332;48.386;2023-03-31T11:02:08;98280.91;;;2.05;100.00
38530;BME280;24301;54.332;48.386;2023-03-31T11:07:36;98282.50;;;1.89;100.00
38530;BME280;24301;54.332;48.386;2023-03-31T11:13:20;98269.44;;;1.79;100.00
38530;BME280;24301;54.332;48.386;2023-03-31T11:21:35;98230.91;;;2.23;100.00
38530;BME280;24301;54.332;48.386;2023-03-31T11:27:06;98267.22;;;2.21;100.00
38530;BME280;24301;54.332;48.386;2023-03-31T11:29:46;98243.03;;;2.25;100.00
38530;BME280;24301;54.332;48.386;2023-03-31T11:32:42;98261.13;;;2.16;100.00
38530;BME280;24301;54.332;48.386;2023-03-31T11:35:42;98204.97;;;2.21;100.00
38530;BME280;24301;54.332;48.386;2023-03-31T11:38:34;98226.75;;;2.48;100.00
38530;BME280;24301;54.332;48.386;2023-03-31T11:43:47;98238.94;;;2.65;100.00
38530;BME280;24301;54.332;48.386;2023-03-31T11:46:20;98230.34;;;2.70;100.00
38530;BME280;24301;54.332;48.386;2023-03-31T11:48:56;98224.31;;;2.76;100.00
38530;BME280;24301;54.332;48.386;2023-03-31T11:51:33;98216.50;;;2.75;100.00
38530;BME280;24301;54.332;48.386;2023-03-31T11:54:05;98247.69;;;2.76;100.00
38530;BME280;24301;54.332;48.386;2023-03-31T11:56:38;98218.25;;;2.74;100.00
38530;BME280;24301;54.332;48.386;2023-03-31T11:59:06;98261.50;;;2.69;100.00
38530;BME280;24301;54.332;48.386;2023-03-31T12:01:45;98255.38;;;2.59;100.00
38530;BME280;24301;54.332;48.386;2023-03-31T12:04:31;98259.66;;;2.55;100.00
38530;BME280;24301;54.332;48.386;2023-03-31T12:07:23;98264.03;;;2.64;100.00
38530;BME280;24301;54.332;48.386;2023-03-31T12:09:54;98254.59;;;2.74;100.00
38530;BME280;24301;54.332;48.386;2023-03-31T12:12:33;98261.53;;;2.78;100.00
38530;BME280;24301;54.332;48.386;2023-03-31T12:17:46;98264.16;;;2.83;100.00
38530;BME280;24301;54.332;48.386;2023-03-31T12:21:02;98269.28;;;2.72;100.00
38530;BME280;24301;54.332;48.386;2023-03-31T12:23:13;98284.81;;;2.67;100.00
38530;BME280;24301;54.332;48.386;2023-03-31T12:28:35;98260.44;;;2.42;100.00
38530;BME280;24301;54.332;48.386;2023-03-31T12:31:05;98280.25;;;2.29;100.00
38530;BME280;24301;54.332;48.386;2023-03-31T12:33:36;98271.59;;;2.32;100.00
38530;BME280;24301;54.332;48.386;2023-03-31T12:41:43;98253.38;;;2.22;100.00
38530;BME280;24301;54.332;48.386;2023-03-31T12:47:16;98253.47;;;2.35;100.00
38530;BME280;24301;54.332;48.386;2023-03-31T12:55:55;98258.78;;;2.50;100.00
38530;BME280;24301;54.332;48.386;2023-03-31T13:11:43;98252.75;;;2.56;100.00
38530;BME280;24301;54.332;48.386;2023-03-31T13:14:21;98255.34;;;2.61;100.00
38530;BME280;24301;54.332;48.386;2023-03-31T13:16:49;98262.28;;;2.58;100.00
38530;BME280;24301;54.332;48.386;2023-03-31T13:19:33;98251.88;;;2.55;100.00
38530;BME280;24301;54.332;48.386;2023-03-31T13:22:02;98245.81;;;2.56;100.00
38530;BME280;24301;54.332;48.386;2023-03-31T13:24:30;98254.34;;;2.37;100.00
38530;BME280;24301;54.332;48.386;2023-03-31T13:26:58;98263.84;;;2.33;100.00
38530;BME280;24301;54.332;48.386;2023-03-31T13:29:44;98256.06;;;2.33;100.00
38530;BME280;24301;54.332;48.386;2023-03-31T13:32:20;98264.69;;;2.34;100.00
38530;BME280;24301;54.332;48.386;2023-03-31T13:34:55;98266.41;;;2.32;100.00
38530;BME280;24301;54.332;48.386;2023-03-31T13:56:48;98305.38;;;2.36;100.00
38530;BME280;24301;54.332;48.386;2023-03-31T13:59:37;98294.09;;;2.33;100.00
38530;BME280;24301;54.332;48.386;2023-03-31T14:02:31;98303.53;;;2.23;100.00
38530;BME280;24301;54.332;48.386;2023-03-31T14:08:05;98290.63;;;2.30;100.00
38530;BME280;24301;54.332;48.386;2023-03-31T14:10:41;98296.72;;;2.39;100.00
38530;BME280;24301;54.332;48.386;2023-03-31T14:13:23;98284.72;;;2.53;100.00
38530;BME280;24301;54.332;48.386;2023-03-31T14:15:57;98287.38;;;2.61;100.00
38530;BME280;24301;54.332;48.386;2023-03-31T14:18:31;98295.16;;;2.63;100.00
38530;BME280;24301;54.332;48.386;2023-03-31T14:21:11;98292.59;;;2.64;100.00
38530;BME280;24301;54.332;48.386;2023-03-31T14:24:08;98309.03;;;2.66;100.00
38530;BME280;24301;54.332;48.386;2023-03-31T14:29:39;98316.94;;;2.83;100.00
38530;BME280;24301;54.332;48.386;2023-03-31T14:35:37;98342.94;;;2.91;100.00
38530;BME280;24301;54.332;48.386;2023-03-31T14:38:16;98332.59;;;2.93;100.00
38530;BME280;24301;54.332;48.386;2023-03-31T14:41:01;98336.09;;;3.01;100.00
38530;BME280;24301;54.332;48.386;2023-03-31T14:43:32;98331.78;;;3.05;99.55
38530;BME280;24301;54.332;48.386;2023-03-31T14:46:07;98345.63;;;3.08;99.45
38530;BME280;24301;54.332;48.386;2023-03-31T14:48:43;98345.69;;;3.19;99.04
38530;BME280;24301;54.332;48.386;2023-03-31T14:51:11;98303.31;;;3.28;98.75
38530;BME280;24301;54.332;48.386;2023-03-31T14:53:37;98336.28;;;3.46;97.35
38530;BME280;24301;54.332;48.386;2023-03-31T14:56:09;98358.88;;;3.59;95.78
38530;BME280;24301;54.332;48.386;2023-03-31T14:58:40;98359.78;;;3.68;94.38
38530;BME280;24301;54.332;48.386;2023-03-31T15:01:11;98354.59;;;3.76;92.86
38530;BME280;24301;54.332;48.386;2023-03-31T15:03:41;98351.16;;;3.80;91.37
38530;BME280;24301;54.332;48.386;2023-03-31T15:06:08;98352.03;;;3.91;90.10
38530;BME280;24301;54.332;48.386;2023-03-31T15:08:36;98354.66;;;3.99;88.67
38530;BME280;24301;54.332;48.386;2023-03-31T15:11:05;98367.69;;;4.03;86.57
38530;BME280;24301;54.332;48.386;2023-03-31T15:13:35;98361.63;;;4.09;85.17
38530;BME280;24301;54.332;48.386;2023-03-31T15:16:44;98352.06;;;4.10;80.99
38530;BME280;24301;54.332;48.386;2023-03-31T15:19:22;98359.91;;;4.11;81.21
38530;BME280;24301;54.332;48.386;2023-03-31T15:22:00;98368.56;;;4.13;80.95
38530;BME280;24301;54.332;48.386;2023-03-31T15:24:27;98338.22;;;4.17;79.26
38530;BME280;24301;54.332;48.386;2023-03-31T15:27:03;98358.19;;;4.18;78.66
38530;BME280;24301;54.332;48.386;2023-03-31T15:29:39;98379.00;;;4.21;79.43
38530;BME280;24301;54.332;48.386;2023-03-31T15:32:30;98381.59;;;4.24;78.87
38530;BME280;24301;54.332;48.386;2023-03-31T15:34:57;98381.59;;;4.21;79.39
38530;BME280;24301;54.332;48.386;2023-03-31T15:37:49;98392.84;;;4.28;78.17
38530;BME280;24301;54.332;48.386;2023-03-31T15:40:25;98407.63;;;4.27;78.46
38530;BME280;24301;54.332;48.386;2023-03-31T15:42:55;98395.47;;;4.28;77.90